AVA9267 SKCG-SKRG
Flight info
| Callsign | AVA9267 |
|---|---|
| Flight time | 0h 48m |
| Altitude | 27000 |
| Route | ESKAB2A ESKAB DCT UGALU DCT OTU OTU3A |
| Aircraft | A20N/M-SDE2E3FGHIJ1RWXY/LB1 |
Departure
| Time | 2026-05-05 04:23 |
|---|---|
| Airport | Rafael Nuñez International Airport (SKCG) |
Arrival
| Time | 2026-05-05 05:12 |
|---|---|
| Airport | Jose Maria Córdova International Airport (SKRG) |
| Time | Latitude | Longitude | Altitude | Speed | Heading |
|---|---|---|---|---|---|
| 2026-05-05 04:08 | 10.44578 | -75.51559 | 19 ft | 0 kts | 271° |
| 2026-05-05 04:14 | 10.44578 | -75.51543 | 19 ft | 2 kts | 270° |
| 2026-05-05 04:15 | 10.44578 | -75.51527 | 19 ft | 2 kts | 270° |
| 2026-05-05 04:15 | 10.44578 | -75.51510 | 19 ft | 2 kts | 268° |
| 2026-05-05 04:15 | 10.44579 | -75.51493 | 19 ft | 2 kts | 264° |
| 2026-05-05 04:15 | 10.44582 | -75.51477 | 21 ft | 2 kts | 252° |
| 2026-05-05 04:16 | 10.44591 | -75.51463 | 22 ft | 2 kts | 205° |
| 2026-05-05 04:16 | 10.44602 | -75.51460 | 20 ft | 1 kts | 184° |
| 2026-05-05 04:16 | 10.44604 | -75.51460 | 22 ft | 0 kts | 182° |
| 2026-05-05 04:18 | 10.44587 | -75.51458 | 19 ft | 9 kts | 173° |
| 2026-05-05 04:19 | 10.44555 | -75.51415 | 19 ft | 8 kts | 95° |
| 2026-05-05 04:19 | 10.44551 | -75.51360 | 19 ft | 8 kts | 97° |
| 2026-05-05 04:19 | 10.44539 | -75.51303 | 19 ft | 8 kts | 120° |
| 2026-05-05 04:19 | 10.44484 | -75.51281 | 19 ft | 15 kts | 182° |
| 2026-05-05 04:20 | 10.44301 | -75.51290 | 18 ft | 31 kts | 182° |
| 2026-05-05 04:20 | 10.44065 | -75.51299 | 16 ft | 35 kts | 182° |
| 2026-05-05 04:20 | 10.43820 | -75.51308 | 18 ft | 36 kts | 182° |
| 2026-05-05 04:20 | 10.43570 | -75.51318 | 19 ft | 36 kts | 182° |
| 2026-05-05 04:21 | 10.43330 | -75.51328 | 21 ft | 32 kts | 182° |
| 2026-05-05 04:21 | 10.43228 | -75.51318 | 21 ft | 10 kts | 144° |
| 2026-05-05 04:21 | 10.43179 | -75.51271 | 20 ft | 10 kts | 136° |
| 2026-05-05 04:21 | 10.43101 | -75.51233 | 22 ft | 14 kts | 191° |
| 2026-05-05 04:22 | 10.43069 | -75.51297 | 21 ft | 10 kts | 272° |
| 2026-05-05 04:22 | 10.43113 | -75.51338 | 21 ft | 10 kts | 3° |
| 2026-05-05 04:22 | 10.43171 | -75.51334 | 21 ft | 0 kts | 2° |
| 2026-05-05 04:23 | 10.43354 | -75.51326 | 22 ft | 64 kts | 2° |
| 2026-05-05 04:23 | 10.44055 | -75.51298 | 17 ft | 134 kts | 2° |
| 2026-05-05 04:23 | 10.45114 | -75.51253 | 287 ft | 161 kts | 3° |
| 2026-05-05 04:23 | 10.46207 | -75.51212 | 1074 ft | 153 kts | 2° |
| 2026-05-05 04:24 | 10.47265 | -75.51175 | 2000 ft | 159 kts | 4° |
| 2026-05-05 04:24 | 10.48504 | -75.51121 | 2447 ft | 196 kts | 4° |
| 2026-05-05 04:24 | 10.49993 | -75.51270 | 2801 ft | 234 kts | 340° |
| 2026-05-05 04:25 | 10.51559 | -75.53933 | 4775 ft | 237 kts | 261° |
| 2026-05-05 04:25 | 10.50873 | -75.55429 | 5662 ft | 238 kts | 224° |
| 2026-05-05 04:25 | 10.49622 | -75.56532 | 6579 ft | 240 kts | 215° |
| 2026-05-05 04:25 | 10.48294 | -75.57578 | 7455 ft | 243 kts | 216° |
| 2026-05-05 04:26 | 10.46931 | -75.58700 | 8051 ft | 264 kts | 217° |
| 2026-05-05 04:26 | 10.45447 | -75.59927 | 8523 ft | 284 kts | 213° |
| 2026-05-05 04:26 | 10.43682 | -75.60858 | 9251 ft | 289 kts | 195° |
| 2026-05-05 04:26 | 10.41724 | -75.61130 | 10049 ft | 290 kts | 174° |
| 2026-05-05 04:27 | 10.39689 | -75.60838 | 10530 ft | 305 kts | 166° |
| 2026-05-05 04:27 | 10.37562 | -75.60273 | 10813 ft | 326 kts | 161° |
| 2026-05-05 04:27 | 10.35343 | -75.59537 | 11137 ft | 343 kts | 160° |
| 2026-05-05 04:27 | 10.33058 | -75.58728 | 11654 ft | 351 kts | 159° |
| 2026-05-05 04:28 | 10.30732 | -75.57909 | 12269 ft | 356 kts | 159° |
| 2026-05-05 04:28 | 10.28368 | -75.57099 | 12906 ft | 360 kts | 160° |
| 2026-05-05 04:28 | 10.25970 | -75.56302 | 13555 ft | 364 kts | 160° |
| 2026-05-05 04:28 | 10.23540 | -75.55514 | 14134 ft | 369 kts | 161° |
| 2026-05-05 04:29 | 10.21082 | -75.54728 | 14710 ft | 373 kts | 161° |
| 2026-05-05 04:29 | 10.18625 | -75.53949 | 15288 ft | 377 kts | 161° |
| 2026-05-05 04:29 | 10.16109 | -75.53153 | 15877 ft | 380 kts | 161° |
| 2026-05-05 04:29 | 10.13569 | -75.52349 | 16455 ft | 384 kts | 161° |
| 2026-05-05 04:30 | 10.11007 | -75.51537 | 17046 ft | 388 kts | 161° |
| 2026-05-05 04:30 | 10.08417 | -75.50716 | 17617 ft | 392 kts | 161° |
| 2026-05-05 04:30 | 10.05803 | -75.49886 | 18160 ft | 396 kts | 161° |
| 2026-05-05 04:30 | 10.03165 | -75.49048 | 18615 ft | 399 kts | 161° |
| 2026-05-05 04:31 | 10.00535 | -75.48213 | 19041 ft | 403 kts | 161° |
| 2026-05-05 04:31 | 9.97852 | -75.47361 | 19469 ft | 406 kts | 161° |
| 2026-05-05 04:31 | 9.95145 | -75.46502 | 19882 ft | 409 kts | 161° |
| 2026-05-05 04:31 | 9.93302 | -75.45916 | 20157 ft | 412 kts | 162° |
| 2026-05-05 04:32 | 9.91016 | -75.45191 | 20505 ft | 414 kts | 162° |
| 2026-05-05 04:32 | 9.88253 | -75.44314 | 20945 ft | 417 kts | 162° |
| 2026-05-05 04:32 | 9.85472 | -75.43432 | 21374 ft | 421 kts | 162° |
| 2026-05-05 04:33 | 9.82668 | -75.42542 | 21820 ft | 424 kts | 162° |
| 2026-05-05 04:33 | 9.79843 | -75.41646 | 22261 ft | 427 kts | 162° |
| 2026-05-05 04:33 | 9.77001 | -75.40745 | 22703 ft | 431 kts | 162° |
| 2026-05-05 04:33 | 9.74162 | -75.39845 | 23142 ft | 434 kts | 162° |
| 2026-05-05 04:34 | 9.71273 | -75.38929 | 23567 ft | 437 kts | 162° |
| 2026-05-05 04:34 | 9.68362 | -75.38007 | 23939 ft | 440 kts | 162° |
| 2026-05-05 04:34 | 9.65432 | -75.37078 | 24328 ft | 442 kts | 162° |
| 2026-05-05 04:34 | 9.62492 | -75.36147 | 24733 ft | 444 kts | 162° |
| 2026-05-05 04:35 | 9.59531 | -75.35208 | 25156 ft | 447 kts | 162° |
| 2026-05-05 04:35 | 9.56560 | -75.34267 | 25573 ft | 449 kts | 162° |
| 2026-05-05 04:35 | 9.53565 | -75.33319 | 25978 ft | 452 kts | 162° |
| 2026-05-05 04:35 | 9.50598 | -75.32380 | 26373 ft | 454 kts | 162° |
| 2026-05-05 04:36 | 9.47571 | -75.31422 | 26745 ft | 457 kts | 162° |
| 2026-05-05 04:36 | 9.44537 | -75.30461 | 26896 ft | 457 kts | 162° |
| 2026-05-05 04:36 | 9.41496 | -75.29499 | 26911 ft | 458 kts | 162° |
| 2026-05-05 04:36 | 9.38453 | -75.28536 | 26912 ft | 459 kts | 162° |
| 2026-05-05 04:37 | 9.35398 | -75.27570 | 26912 ft | 460 kts | 162° |
| 2026-05-05 04:37 | 9.32345 | -75.26604 | 26910 ft | 460 kts | 162° |
| 2026-05-05 04:37 | 9.29296 | -75.25640 | 26913 ft | 460 kts | 162° |
| 2026-05-05 04:37 | 9.26208 | -75.24775 | 26911 ft | 460 kts | 168° |
| 2026-05-05 04:38 | 9.23087 | -75.24358 | 26914 ft | 460 kts | 178° |
| 2026-05-05 04:38 | 9.19900 | -75.24499 | 26913 ft | 459 kts | 187° |
| 2026-05-05 04:38 | 9.16738 | -75.25001 | 26913 ft | 459 kts | 190° |
| 2026-05-05 04:38 | 9.13597 | -75.25589 | 26914 ft | 459 kts | 191° |
| 2026-05-05 04:39 | 9.10456 | -75.26197 | 26916 ft | 459 kts | 191° |
| 2026-05-05 04:39 | 9.07317 | -75.26809 | 26916 ft | 459 kts | 191° |
| 2026-05-05 04:39 | 9.04176 | -75.27420 | 26915 ft | 460 kts | 191° |
| 2026-05-05 04:39 | 9.01036 | -75.28031 | 26916 ft | 459 kts | 191° |
| 2026-05-05 04:40 | 8.97897 | -75.28642 | 26917 ft | 460 kts | 191° |
| 2026-05-05 04:40 | 8.94760 | -75.29251 | 26918 ft | 460 kts | 191° |
| 2026-05-05 04:40 | 8.91662 | -75.29853 | 26918 ft | 460 kts | 191° |
| 2026-05-05 04:40 | 8.88522 | -75.30463 | 26920 ft | 459 kts | 191° |
| 2026-05-05 04:41 | 8.85380 | -75.31073 | 26920 ft | 459 kts | 191° |
| 2026-05-05 04:41 | 8.82240 | -75.31682 | 26921 ft | 460 kts | 191° |
| 2026-05-05 04:41 | 8.79099 | -75.32292 | 26916 ft | 460 kts | 191° |
| 2026-05-05 04:41 | 8.75959 | -75.32901 | 26917 ft | 460 kts | 191° |
| 2026-05-05 04:42 | 8.72822 | -75.33510 | 26921 ft | 460 kts | 191° |
| 2026-05-05 04:42 | 8.69675 | -75.34120 | 26917 ft | 460 kts | 191° |
| 2026-05-05 04:42 | 8.66535 | -75.34729 | 26921 ft | 460 kts | 191° |
| 2026-05-05 04:42 | 8.63437 | -75.35330 | 26918 ft | 460 kts | 191° |
| 2026-05-05 04:43 | 8.60293 | -75.35939 | 26918 ft | 460 kts | 191° |
| 2026-05-05 04:43 | 8.57152 | -75.36548 | 26918 ft | 460 kts | 191° |
| 2026-05-05 04:43 | 8.54006 | -75.37158 | 26918 ft | 460 kts | 191° |
| 2026-05-05 04:43 | 8.50870 | -75.37766 | 26917 ft | 460 kts | 191° |
| 2026-05-05 04:44 | 8.47717 | -75.38377 | 26916 ft | 460 kts | 191° |
| 2026-05-05 04:44 | 8.44576 | -75.38985 | 26917 ft | 460 kts | 191° |
| 2026-05-05 04:44 | 8.41435 | -75.39593 | 26917 ft | 460 kts | 191° |
| 2026-05-05 04:44 | 8.38292 | -75.40202 | 26915 ft | 460 kts | 191° |
| 2026-05-05 04:45 | 8.35190 | -75.40803 | 26917 ft | 460 kts | 190° |
| 2026-05-05 04:45 | 8.32052 | -75.41410 | 26917 ft | 460 kts | 190° |
| 2026-05-05 04:45 | 8.28912 | -75.42018 | 26922 ft | 460 kts | 190° |
| 2026-05-05 04:45 | 8.25769 | -75.42626 | 26919 ft | 459 kts | 190° |
| 2026-05-05 04:46 | 8.22634 | -75.43233 | 26919 ft | 459 kts | 190° |
| 2026-05-05 04:46 | 8.19496 | -75.43840 | 26920 ft | 459 kts | 190° |
| 2026-05-05 04:46 | 8.16359 | -75.44447 | 26917 ft | 459 kts | 190° |
| 2026-05-05 04:46 | 8.13222 | -75.45053 | 26917 ft | 459 kts | 190° |
| 2026-05-05 04:47 | 8.10084 | -75.45660 | 26918 ft | 459 kts | 190° |
| 2026-05-05 04:47 | 8.06952 | -75.46266 | 26917 ft | 459 kts | 190° |
| 2026-05-05 04:47 | 8.03860 | -75.46863 | 26921 ft | 459 kts | 190° |
| 2026-05-05 04:47 | 8.00728 | -75.47469 | 26919 ft | 459 kts | 190° |
| 2026-05-05 04:48 | 7.97593 | -75.48075 | 26920 ft | 459 kts | 190° |
| 2026-05-05 04:48 | 7.94459 | -75.48680 | 26922 ft | 459 kts | 190° |
| 2026-05-05 04:48 | 7.91327 | -75.49285 | 26923 ft | 459 kts | 190° |
| 2026-05-05 04:48 | 7.88196 | -75.49890 | 26924 ft | 458 kts | 190° |
| 2026-05-05 04:49 | 7.85067 | -75.50494 | 26924 ft | 458 kts | 190° |
| 2026-05-05 04:49 | 7.81924 | -75.51101 | 26927 ft | 458 kts | 190° |
| 2026-05-05 04:49 | 7.78791 | -75.51706 | 26931 ft | 458 kts | 190° |
| 2026-05-05 04:49 | 7.75703 | -75.52302 | 26933 ft | 458 kts | 190° |
| 2026-05-05 04:50 | 7.72576 | -75.52905 | 26938 ft | 458 kts | 190° |
| 2026-05-05 04:50 | 7.69441 | -75.53510 | 26941 ft | 458 kts | 190° |
| 2026-05-05 04:50 | 7.66307 | -75.54115 | 26947 ft | 458 kts | 190° |
| 2026-05-05 04:50 | 7.63176 | -75.54719 | 26950 ft | 458 kts | 190° |
| 2026-05-05 04:51 | 7.60042 | -75.55324 | 26958 ft | 458 kts | 190° |
| 2026-05-05 04:51 | 7.56914 | -75.55927 | 26961 ft | 458 kts | 190° |
| 2026-05-05 04:51 | 7.53785 | -75.56530 | 26971 ft | 458 kts | 190° |
| 2026-05-05 04:51 | 7.50691 | -75.57127 | 26970 ft | 458 kts | 190° |
| 2026-05-05 04:52 | 7.47562 | -75.57730 | 26977 ft | 458 kts | 190° |
| 2026-05-05 04:52 | 7.44436 | -75.58333 | 26982 ft | 458 kts | 190° |
| 2026-05-05 04:52 | 7.41303 | -75.58937 | 26989 ft | 458 kts | 190° |
| 2026-05-05 04:52 | 7.38175 | -75.59539 | 26990 ft | 458 kts | 190° |
| 2026-05-05 04:53 | 7.35047 | -75.60142 | 26992 ft | 458 kts | 190° |
| 2026-05-05 04:53 | 7.31908 | -75.60746 | 27004 ft | 461 kts | 190° |
| 2026-05-05 04:53 | 7.28749 | -75.61355 | 27014 ft | 462 kts | 190° |
| 2026-05-05 04:53 | 7.25593 | -75.61963 | 27019 ft | 463 kts | 190° |
| 2026-05-05 04:54 | 7.22432 | -75.62571 | 27021 ft | 463 kts | 190° |
| 2026-05-05 04:54 | 7.19312 | -75.63172 | 27027 ft | 463 kts | 190° |
| 2026-05-05 04:54 | 7.16146 | -75.63782 | 27034 ft | 463 kts | 190° |
| 2026-05-05 04:54 | 7.12985 | -75.64390 | 27040 ft | 462 kts | 190° |
| 2026-05-05 04:55 | 7.09833 | -75.64997 | 27043 ft | 462 kts | 190° |
| 2026-05-05 04:55 | 7.06671 | -75.65605 | 27058 ft | 462 kts | 190° |
| 2026-05-05 04:55 | 7.03517 | -75.66212 | 27054 ft | 462 kts | 190° |
| 2026-05-05 04:55 | 7.00355 | -75.66820 | 27055 ft | 462 kts | 190° |
| 2026-05-05 04:56 | 6.97201 | -75.67427 | 27060 ft | 462 kts | 190° |
| 2026-05-05 04:56 | 6.94053 | -75.68032 | 27063 ft | 462 kts | 190° |
| 2026-05-05 04:56 | 6.90931 | -75.68633 | 27063 ft | 462 kts | 190° |
| 2026-05-05 04:56 | 6.87778 | -75.69239 | 27061 ft | 461 kts | 190° |
| 2026-05-05 04:57 | 6.84627 | -75.69845 | 27061 ft | 461 kts | 190° |
| 2026-05-05 04:57 | 6.81480 | -75.70450 | 27064 ft | 461 kts | 190° |
| 2026-05-05 04:57 | 6.78325 | -75.71056 | 27061 ft | 461 kts | 189° |
| 2026-05-05 04:57 | 6.75173 | -75.71662 | 27062 ft | 461 kts | 189° |
| 2026-05-05 04:58 | 6.72020 | -75.72268 | 27061 ft | 461 kts | 189° |
| 2026-05-05 04:58 | 6.68869 | -75.72873 | 27063 ft | 461 kts | 189° |
| 2026-05-05 04:58 | 6.65761 | -75.73470 | 27064 ft | 461 kts | 189° |
| 2026-05-05 04:58 | 6.62574 | -75.74081 | 26891 ft | 475 kts | 189° |
| 2026-05-05 04:59 | 6.59294 | -75.74710 | 26646 ft | 483 kts | 189° |
| 2026-05-05 04:59 | 6.55999 | -75.75343 | 26408 ft | 482 kts | 189° |
| 2026-05-05 04:59 | 6.52707 | -75.75976 | 26172 ft | 481 kts | 189° |
| 2026-05-05 04:59 | 6.49421 | -75.76607 | 25957 ft | 480 kts | 189° |
| 2026-05-05 05:00 | 6.46149 | -75.77235 | 25746 ft | 478 kts | 189° |
| 2026-05-05 05:00 | 6.42882 | -75.77862 | 25525 ft | 478 kts | 189° |
| 2026-05-05 05:00 | 6.39620 | -75.78488 | 25305 ft | 476 kts | 189° |
| 2026-05-05 05:00 | 6.36415 | -75.79103 | 25063 ft | 473 kts | 189° |
| 2026-05-05 05:01 | 6.33209 | -75.79719 | 24447 ft | 466 kts | 189° |
| 2026-05-05 05:01 | 6.30027 | -75.80316 | 23554 ft | 466 kts | 187° |
| 2026-05-05 05:01 | 6.26813 | -75.80477 | 22734 ft | 459 kts | 174° |
| 2026-05-05 05:01 | 6.23745 | -75.79793 | 22024 ft | 448 kts | 157° |
| 2026-05-05 05:02 | 6.21042 | -75.78325 | 21283 ft | 439 kts | 144° |
| 2026-05-05 05:02 | 6.18587 | -75.76541 | 20539 ft | 432 kts | 141° |
| 2026-05-05 05:02 | 6.17006 | -75.75338 | 20029 ft | 429 kts | 141° |
| 2026-05-05 05:02 | 6.14640 | -75.73532 | 19272 ft | 425 kts | 141° |
| 2026-05-05 05:03 | 6.11539 | -75.71183 | 18253 ft | 419 kts | 141° |
| 2026-05-05 05:03 | 6.09216 | -75.69434 | 17450 ft | 413 kts | 142° |
| 2026-05-05 05:03 | 6.06916 | -75.67731 | 16608 ft | 408 kts | 143° |
| 2026-05-05 05:03 | 6.04630 | -75.66093 | 16061 ft | 401 kts | 143° |
| 2026-05-05 05:04 | 6.02372 | -75.64484 | 15229 ft | 393 kts | 143° |
| 2026-05-05 05:04 | 6.00904 | -75.63439 | 14432 ft | 390 kts | 143° |
| 2026-05-05 05:04 | 5.98717 | -75.61883 | 13532 ft | 382 kts | 143° |
| 2026-05-05 05:04 | 5.96553 | -75.60344 | 13050 ft | 376 kts | 143° |
| 2026-05-05 05:05 | 5.94473 | -75.58865 | 12912 ft | 356 kts | 143° |
| 2026-05-05 05:05 | 5.91898 | -75.57037 | 12805 ft | 330 kts | 143° |
| 2026-05-05 05:05 | 5.90098 | -75.55706 | 12635 ft | 314 kts | 139° |
| 2026-05-05 05:05 | 5.89098 | -75.54656 | 12494 ft | 305 kts | 126° |
| 2026-05-05 05:06 | 5.88181 | -75.52766 | 12279 ft | 302 kts | 104° |
| 2026-05-05 05:06 | 5.88051 | -75.50696 | 12022 ft | 304 kts | 85° |
| 2026-05-05 05:06 | 5.88369 | -75.48598 | 11754 ft | 304 kts | 81° |
| 2026-05-05 05:06 | 5.88773 | -75.46513 | 11490 ft | 303 kts | 81° |
| 2026-05-05 05:07 | 5.89202 | -75.44449 | 11273 ft | 302 kts | 76° |
| 2026-05-05 05:07 | 5.90171 | -75.42580 | 10862 ft | 307 kts | 50° |
| 2026-05-05 05:07 | 5.91949 | -75.41398 | 10367 ft | 312 kts | 20° |
| 2026-05-05 05:07 | 5.94098 | -75.41226 | 10009 ft | 312 kts | 355° |
| 2026-05-05 05:08 | 5.96222 | -75.41535 | 9892 ft | 300 kts | 353° |
| 2026-05-05 05:08 | 5.98221 | -75.41823 | 9909 ft | 281 kts | 355° |
| 2026-05-05 05:08 | 6.00086 | -75.42003 | 9918 ft | 257 kts | 358° |
| 2026-05-05 05:08 | 6.01768 | -75.42103 | 9831 ft | 235 kts | 360° |
| 2026-05-05 05:09 | 6.03322 | -75.42165 | 9675 ft | 213 kts | 0° |
| 2026-05-05 05:09 | 6.04723 | -75.42205 | 9534 ft | 191 kts | 1° |
| 2026-05-05 05:09 | 6.05984 | -75.42304 | 9364 ft | 173 kts | 353° |
| 2026-05-05 05:09 | 6.07125 | -75.42392 | 9162 ft | 159 kts | 3° |
| 2026-05-05 05:10 | 6.08246 | -75.42361 | 8734 ft | 164 kts | 5° |
| 2026-05-05 05:10 | 6.09404 | -75.42323 | 8307 ft | 168 kts | 3° |
| 2026-05-05 05:10 | 6.10576 | -75.42326 | 8010 ft | 169 kts | 2° |
| 2026-05-05 05:10 | 6.11737 | -75.42325 | 7762 ft | 169 kts | 1° |
| 2026-05-05 05:11 | 6.12908 | -75.42312 | 7346 ft | 166 kts | 1° |
| 2026-05-05 05:11 | 6.14062 | -75.42305 | 7132 ft | 166 kts | 359° |
| 2026-05-05 05:11 | 6.15216 | -75.42312 | 7016 ft | 164 kts | 0° |
| 2026-05-05 05:11 | 6.16273 | -75.42312 | 6983 ft | 134 kts | 360° |
| 2026-05-05 05:12 | 6.16921 | -75.42316 | 7019 ft | 59 kts | 359° |
| 2026-05-05 05:12 | 6.17198 | -75.42318 | 7026 ft | 34 kts | 359° |
| 2026-05-05 05:12 | 6.17449 | -75.42320 | 7026 ft | 36 kts | 360° |
| 2026-05-05 05:12 | 6.17552 | -75.42328 | 7027 ft | 5 kts | 326° |
| 2026-05-05 05:13 | 6.17572 | -75.42368 | 7026 ft | 11 kts | 278° |
| 2026-05-05 05:13 | 6.17573 | -75.42461 | 7024 ft | 14 kts | 265° |
| 2026-05-05 05:13 | 6.17513 | -75.42531 | 7024 ft | 17 kts | 213° |
| 2026-05-05 05:13 | 6.17396 | -75.42609 | 7019 ft | 20 kts | 211° |
| 2026-05-05 05:14 | 6.17264 | -75.42620 | 7021 ft | 19 kts | 177° |
| 2026-05-05 05:14 | 6.17175 | -75.42616 | 7021 ft | 0 kts | 178° |
| 2026-05-05 05:14 | 6.17164 | -75.42618 | 7022 ft | 3 kts | 195° |
| 2026-05-05 05:14 | 6.17153 | -75.42627 | 7022 ft | 1 kts | 230° |
| 2026-05-05 05:15 | 6.17147 | -75.42650 | 7020 ft | 4 kts | 263° |
| 2026-05-05 05:15 | 6.17147 | -75.42671 | 7019 ft | 3 kts | 270° |
| 2026-05-05 05:15 | 6.17147 | -75.42681 | 7019 ft | 0 kts | 269° |